createdAt,value
2022-10-19T00:02:18.445Z,22.42
2022-10-19T00:04:52.769Z,22.43
2022-10-19T00:07:22.451Z,22.28
2022-10-19T00:09:51.905Z,22.26
2022-10-19T00:12:21.156Z,22.21
2022-10-19T00:14:50.453Z,22.28
2022-10-19T00:17:19.777Z,22.47
2022-10-19T00:19:49.000Z,22.53
2022-10-19T00:22:18.382Z,22.59
2022-10-19T00:24:49.476Z,22.18
2022-10-19T00:27:21.790Z,22.13
2022-10-19T00:29:51.316Z,21.54
2022-10-19T00:32:20.409Z,21.76
2022-10-19T00:34:49.740Z,21.52
2022-10-19T00:37:18.925Z,21.34
2022-10-19T00:39:48.142Z,21.08
2022-10-19T00:42:17.750Z,20.86
2022-10-19T00:44:49.622Z,20.70
2022-10-19T00:47:24.410Z,20.50
2022-10-19T00:49:56.679Z,20.29
2022-10-19T00:52:28.881Z,20.11
2022-10-19T00:55:00.397Z,19.99
2022-10-19T00:57:32.775Z,19.82
2022-10-19T01:00:05.249Z,19.73
2022-10-19T01:02:35.123Z,19.50
2022-10-19T01:05:05.357Z,19.37
2022-10-19T01:07:35.091Z,18.84
2022-10-19T01:10:06.401Z,18.24
2022-10-19T01:12:35.508Z,18.62
2022-10-19T01:15:08.356Z,18.56
2022-10-19T01:17:46.176Z,18.60
2022-10-19T01:20:17.974Z,18.51
2022-10-19T01:22:56.900Z,18.38
2022-10-19T01:26:13.295Z,18.25
2022-10-19T01:29:07.631Z,17.99
2022-10-19T01:31:51.272Z,17.90
2022-10-19T01:34:49.355Z,17.84
2022-10-19T01:37:41.771Z,17.71
2022-10-19T01:40:39.087Z,17.60
2022-10-19T01:43:53.002Z,17.53
2022-10-19T01:46:30.985Z,17.43
2022-10-19T01:49:13.121Z,17.34
2022-10-19T01:51:51.346Z,17.16
2022-10-19T01:54:23.337Z,17.08
2022-10-19T01:56:55.398Z,17.00
2022-10-19T01:59:26.845Z,16.95
2022-10-19T02:01:56.919Z,16.90
2022-10-19T02:04:27.339Z,16.84
2022-10-19T02:06:57.775Z,16.76
2022-10-19T02:09:27.394Z,16.45
2022-10-19T02:12:00.198Z,16.49
2022-10-19T02:14:37.917Z,16.53
2022-10-19T02:17:11.314Z,16.36
2022-10-19T02:19:40.850Z,16.45
2022-10-19T02:22:10.982Z,16.43
2022-10-19T02:24:45.660Z,16.31
2022-10-19T02:27:15.121Z,16.37
2022-10-19T02:29:45.760Z,16.39
2022-10-19T02:32:15.053Z,16.35
2022-10-19T02:34:57.799Z,16.35
2022-10-19T02:37:27.459Z,16.29
2022-10-19T02:39:56.719Z,16.17
2022-10-19T02:42:46.488Z,16.09
2022-10-19T02:45:22.698Z,16.15
2022-10-19T02:48:11.014Z,16.15
2022-10-19T02:50:47.281Z,16.09
2022-10-19T02:53:17.486Z,16.02
2022-10-19T02:55:51.927Z,15.96
2022-10-19T02:58:22.807Z,15.84
2022-10-19T03:00:52.234Z,15.81
2022-10-19T03:03:21.693Z,15.72
2022-10-19T03:05:50.877Z,15.64
2022-10-19T03:08:23.144Z,15.58
2022-10-19T03:10:52.626Z,15.59
2022-10-19T03:13:21.720Z,15.53
2022-10-19T03:15:54.031Z,15.41
2022-10-19T03:18:23.170Z,15.41
2022-10-19T03:20:56.483Z,15.39
2022-10-19T03:23:28.037Z,15.34
2022-10-19T03:25:57.079Z,15.31
2022-10-19T03:28:26.785Z,15.24
2022-10-19T03:30:56.292Z,15.17
2022-10-19T03:36:17.230Z,15.08
2022-10-19T03:38:47.063Z,15.02
2022-10-19T03:41:16.313Z,15.02
2022-10-19T03:43:48.766Z,14.88
2022-10-19T03:46:18.651Z,14.94
2022-10-19T03:48:48.223Z,14.92
2022-10-19T03:51:23.547Z,14.89
2022-10-19T03:53:57.430Z,14.84
2022-10-19T03:56:31.259Z,14.79
2022-10-19T03:59:03.679Z,14.75
2022-10-19T04:01:39.394Z,14.69
2022-10-19T04:04:12.749Z,14.63
2022-10-19T04:06:46.082Z,14.58
2022-10-19T04:09:19.005Z,14.49
2022-10-19T04:11:52.017Z,14.47
2022-10-19T04:14:32.021Z,14.40
2022-10-19T04:17:04.855Z,14.36
2022-10-19T04:19:34.102Z,14.32
2022-10-19T04:22:04.547Z,14.32
2022-10-19T04:24:34.451Z,14.32
2022-10-19T04:27:04.557Z,14.28
2022-10-19T04:29:33.656Z,14.20
2022-10-19T04:32:03.172Z,14.19
2022-10-19T04:34:35.156Z,14.12
2022-10-19T04:37:07.048Z,14.05
2022-10-19T04:39:40.282Z,14.06
2022-10-19T04:42:09.319Z,14.09
2022-10-19T04:44:40.831Z,14.09
2022-10-19T04:47:10.094Z,14.19
2022-10-19T04:49:39.360Z,14.21
2022-10-19T04:52:08.843Z,14.16
2022-10-19T04:54:37.964Z,14.16
2022-10-19T04:57:07.113Z,14.13
2022-10-19T04:59:36.218Z,14.06
2022-10-19T05:02:05.662Z,14.00
2022-10-19T05:04:34.760Z,13.91
2022-10-19T05:07:04.907Z,13.88
2022-10-19T05:09:34.091Z,13.50
2022-10-19T05:12:05.562Z,13.48
2022-10-19T05:14:36.797Z,13.54
2022-10-19T05:17:08.321Z,13.51
2022-10-19T05:19:37.333Z,13.28
2022-10-19T05:22:06.477Z,12.75
2022-10-19T05:24:35.466Z,12.96
2022-10-19T05:27:04.657Z,13.14
2022-10-19T05:29:34.779Z,12.78
2022-10-19T05:32:04.911Z,13.11
2022-10-19T05:34:34.122Z,13.23
2022-10-19T05:37:04.756Z,13.34
2022-10-19T05:39:33.874Z,13.31
2022-10-19T05:42:03.138Z,12.73
2022-10-19T05:44:32.285Z,12.46
2022-10-19T05:47:01.478Z,12.74
2022-10-19T05:49:33.411Z,12.97
2022-10-19T05:52:04.691Z,13.04
2022-10-19T05:54:34.001Z,13.14
2022-10-19T05:57:06.502Z,13.04
2022-10-19T05:59:35.645Z,13.03
2022-10-19T06:02:06.410Z,13.02
2022-10-19T06:04:35.780Z,12.92
2022-10-19T06:07:04.896Z,12.94
2022-10-19T06:09:37.132Z,12.89
2022-10-19T06:12:06.589Z,12.47
2022-10-19T06:14:35.737Z,12.33
2022-10-19T06:17:04.905Z,12.61
2022-10-19T06:19:34.054Z,12.39
2022-10-19T06:22:03.321Z,12.31
2022-10-19T06:24:32.565Z,12.37
2022-10-19T06:27:01.676Z,12.56
2022-10-19T06:29:30.653Z,12.43
2022-10-19T06:32:01.199Z,12.58
2022-10-19T06:34:30.546Z,12.70
2022-10-19T06:36:59.668Z,12.57
2022-10-19T06:39:29.329Z,12.61
2022-10-19T06:41:58.419Z,12.69
2022-10-19T06:44:28.190Z,12.72
2022-10-19T06:46:57.309Z,12.65
2022-10-19T06:49:26.376Z,12.49
2022-10-19T06:51:55.519Z,12.47
2022-10-19T06:54:26.427Z,12.38
2022-10-19T06:56:55.863Z,12.29
2022-10-19T06:59:25.032Z,12.32
2022-10-19T07:01:54.005Z,12.34
2022-10-19T07:04:23.168Z,12.26
2022-10-19T07:06:53.516Z,12.22
2022-10-19T07:09:23.559Z,12.22
2022-10-19T07:11:53.288Z,12.24
2022-10-19T07:14:25.629Z,12.20
2022-10-19T07:16:55.038Z,12.16
2022-10-19T07:19:27.570Z,12.02
2022-10-19T07:21:56.838Z,11.97
2022-10-19T07:24:26.856Z,11.95
2022-10-19T07:26:56.790Z,12.01
2022-10-19T07:29:25.762Z,12.00
2022-10-19T07:31:54.959Z,11.89
2022-10-19T07:34:26.782Z,11.81
2022-10-19T07:36:59.195Z,11.80
2022-10-19T07:39:28.583Z,11.76
2022-10-19T07:42:00.173Z,11.70
2022-10-19T07:44:31.838Z,11.66
2022-10-19T07:47:01.828Z,11.71
2022-10-19T07:49:31.060Z,11.61
2022-10-19T07:52:00.347Z,11.62
2022-10-19T07:54:30.079Z,11.58
2022-10-19T07:57:01.647Z,11.56
2022-10-19T07:59:32.006Z,11.50
2022-10-19T08:02:03.587Z,11.15
2022-10-19T08:07:22.185Z,11.39
2022-10-19T08:09:53.940Z,11.46
2022-10-19T08:12:26.206Z,11.46
2022-10-19T08:14:58.558Z,11.44
2022-10-19T08:17:27.717Z,11.39
2022-10-19T08:19:58.851Z,11.46
2022-10-19T08:22:28.415Z,11.43
2022-10-19T08:24:57.432Z,11.46
2022-10-19T08:27:26.851Z,11.38
2022-10-19T08:29:56.178Z,11.36
2022-10-19T08:32:25.384Z,11.36
2022-10-19T08:34:54.388Z,11.33
2022-10-19T08:37:40.193Z,11.31
2022-10-19T08:40:31.775Z,11.20
2022-10-19T08:43:23.026Z,11.17
2022-10-19T08:46:16.090Z,11.24
2022-10-19T08:48:46.527Z,11.26
2022-10-19T08:51:15.785Z,11.23
2022-10-19T08:53:56.790Z,11.22
2022-10-19T08:56:51.797Z,11.19
2022-10-19T08:59:32.282Z,11.10
2022-10-19T09:02:12.461Z,11.13
2022-10-19T09:04:45.829Z,11.13
2022-10-19T09:07:24.382Z,11.04
2022-10-19T09:10:20.967Z,10.83
2022-10-19T09:13:26.688Z,10.57
2022-10-19T09:15:58.702Z,10.87
2022-10-19T09:18:30.655Z,10.88
2022-10-19T09:21:11.206Z,10.89
2022-10-19T09:24:05.843Z,10.93
2022-10-19T09:26:42.818Z,10.99
2022-10-19T09:29:26.425Z,10.99
2022-10-19T09:32:00.245Z,10.93
2022-10-19T09:34:48.302Z,10.89
2022-10-19T09:37:26.300Z,10.90
2022-10-19T09:39:57.427Z,10.88
2022-10-19T09:42:34.563Z,10.89
2022-10-19T09:45:37.802Z,10.81
2022-10-19T09:48:32.148Z,10.81
2022-10-19T09:51:04.760Z,10.74
2022-10-19T09:53:34.088Z,10.62
2022-10-19T09:56:10.227Z,10.48
2022-10-19T09:58:52.202Z,10.61
2022-10-19T10:01:41.457Z,10.62
2022-10-19T10:04:18.653Z,10.56
2022-10-19T10:06:49.540Z,10.56
2022-10-19T10:09:22.542Z,10.57
2022-10-19T10:14:34.656Z,10.63
2022-10-19T10:17:08.514Z,10.59
2022-10-19T10:19:38.197Z,10.61
2022-10-19T10:22:26.527Z,10.68
2022-10-19T10:24:57.338Z,10.63
2022-10-19T10:27:33.270Z,10.64
2022-10-19T10:30:17.959Z,10.58
2022-10-19T10:32:57.992Z,10.57
2022-10-19T10:35:36.092Z,10.55
2022-10-19T10:38:18.344Z,10.53
2022-10-19T10:40:57.421Z,10.54
2022-10-19T10:43:34.782Z,10.54
2022-10-19T10:46:17.890Z,10.49
2022-10-19T10:49:13.580Z,10.49
2022-10-19T10:51:52.206Z,10.47
2022-10-19T10:54:24.852Z,10.44
2022-10-19T10:57:14.895Z,10.46
2022-10-19T11:00:16.395Z,10.41
2022-10-19T11:03:15.724Z,10.42
2022-10-19T11:05:56.978Z,10.48
2022-10-19T11:08:37.315Z,10.44
2022-10-19T11:11:24.447Z,10.46
2022-10-19T11:13:56.417Z,10.46
2022-10-19T11:16:36.917Z,10.50
2022-10-19T11:19:25.200Z,10.44
2022-10-19T11:22:04.091Z,10.40
2022-10-19T11:24:43.857Z,10.37
2022-10-19T11:27:24.667Z,10.37
2022-10-19T11:29:59.481Z,10.34
2022-10-19T11:32:34.890Z,10.31
2022-10-19T11:35:29.955Z,10.30
2022-10-19T11:38:30.196Z,10.24
2022-10-19T11:41:35.997Z,10.07
2022-10-19T11:44:05.037Z,10.04
2022-10-19T11:47:12.441Z,9.68
2022-10-19T11:50:11.415Z,9.92
2022-10-19T11:53:15.640Z,9.87
2022-10-19T11:55:44.801Z,9.87
2022-10-19T11:58:44.264Z,9.85
2022-10-19T12:01:29.641Z,9.92
2022-10-19T12:04:20.496Z,9.93
2022-10-19T12:07:21.014Z,9.79
2022-10-19T12:10:53.449Z,9.83
2022-10-19T12:13:34.912Z,9.69
2022-10-19T12:16:07.019Z,9.72
2022-10-19T12:18:55.396Z,9.78
2022-10-19T12:21:32.715Z,9.53
2022-10-19T12:24:06.167Z,9.46
2022-10-19T12:26:38.040Z,9.74
2022-10-19T12:29:15.720Z,9.90
2022-10-19T12:31:48.191Z,9.98
2022-10-19T12:34:57.607Z,9.93
2022-10-19T12:37:40.726Z,9.27
2022-10-19T12:40:21.103Z,9.55
2022-10-19T12:42:59.764Z,9.74
2022-10-19T12:45:37.094Z,9.63
2022-10-19T12:48:17.355Z,9.71
2022-10-19T12:51:12.957Z,9.41
2022-10-19T12:53:50.164Z,9.29
2022-10-19T12:56:28.257Z,9.42
2022-10-19T12:59:03.153Z,9.63
2022-10-19T13:01:35.228Z,9.63
2022-10-19T13:04:10.640Z,9.63
2022-10-19T13:06:50.351Z,9.68
2022-10-19T13:09:28.515Z,9.76
2022-10-19T13:12:19.609Z,9.75
2022-10-19T13:15:32.937Z,9.66
2022-10-19T13:18:17.750Z,9.62
2022-10-19T13:20:54.607Z,9.61
2022-10-19T13:23:33.298Z,9.61
2022-10-19T13:26:32.814Z,9.62
2022-10-19T13:29:03.033Z,9.58
2022-10-19T13:31:33.887Z,9.62
2022-10-19T13:34:12.355Z,9.45
2022-10-19T13:37:01.703Z,9.61
2022-10-19T13:39:31.654Z,9.66
2022-10-19T13:42:00.872Z,9.63
2022-10-19T13:44:36.417Z,9.55
2022-10-19T13:47:08.364Z,9.48
2022-10-19T13:49:46.229Z,9.51
2022-10-19T13:52:36.995Z,9.44
2022-10-19T13:55:49.597Z,9.40
2022-10-19T13:58:40.083Z,9.40
2022-10-19T14:01:37.298Z,9.31
2022-10-19T14:04:22.657Z,9.26
2022-10-19T14:07:06.574Z,9.22
2022-10-19T14:09:58.046Z,9.24
2022-10-19T14:12:30.237Z,9.14
2022-10-19T14:15:00.592Z,8.99
2022-10-19T14:17:43.459Z,9.14
2022-10-19T14:20:38.889Z,9.15
2022-10-19T14:23:41.668Z,9.11
2022-10-19T14:26:21.660Z,9.17
2022-10-19T14:28:59.509Z,9.08
2022-10-19T14:31:37.692Z,9.08
2022-10-19T14:34:10.399Z,9.04
2022-10-19T14:36:44.454Z,9.02
2022-10-19T14:39:32.653Z,8.76
2022-10-19T14:42:07.489Z,8.88
2022-10-19T14:44:42.713Z,8.91
2022-10-19T14:47:31.289Z,8.98
2022-10-19T14:50:00.451Z,9.10
2022-10-19T14:52:35.069Z,9.20
2022-10-19T14:55:17.813Z,9.20
2022-10-19T14:57:51.040Z,9.11
2022-10-19T15:00:23.381Z,9.15
2022-10-19T15:03:05.327Z,9.15
2022-10-19T15:05:47.332Z,9.17
2022-10-19T15:08:49.441Z,9.09
2022-10-19T15:11:23.637Z,9.04
2022-10-19T15:14:00.043Z,8.94
2022-10-19T15:17:04.503Z,8.96
2022-10-19T15:19:41.409Z,9.06
2022-10-19T15:22:10.580Z,9.03
2022-10-19T15:24:41.239Z,8.99
2022-10-19T15:27:22.965Z,9.01
2022-10-19T15:30:26.748Z,9.04
2022-10-19T15:32:58.784Z,9.03
2022-10-19T15:35:31.544Z,8.88
2022-10-19T15:38:03.982Z,8.88
2022-10-19T15:40:39.729Z,9.06
2022-10-19T15:43:48.438Z,9.09
2022-10-19T15:46:45.007Z,9.08
2022-10-19T15:49:17.387Z,9.05
2022-10-19T15:51:50.322Z,9.03
2022-10-19T15:54:20.303Z,9.03
2022-10-19T15:56:53.984Z,9.06
2022-10-19T15:59:24.698Z,9.07
2022-10-19T16:01:56.072Z,9.15
2022-10-19T16:04:25.568Z,9.24
2022-10-19T16:06:54.765Z,9.24
2022-10-19T16:09:24.006Z,9.28
2022-10-19T16:11:57.704Z,9.29
2022-10-19T16:14:33.073Z,9.33
2022-10-19T16:17:05.978Z,9.43
2022-10-19T16:19:35.106Z,9.48
2022-10-19T16:22:04.987Z,9.47
2022-10-19T16:24:34.255Z,9.38
2022-10-19T16:27:03.575Z,9.38
2022-10-19T16:29:32.852Z,9.62
2022-10-19T16:32:03.146Z,9.79
2022-10-19T16:34:32.286Z,9.77
2022-10-19T16:37:05.741Z,9.61
2022-10-19T16:39:36.802Z,9.48
2022-10-19T16:42:05.925Z,9.88
2022-10-19T16:44:35.147Z,10.04
2022-10-19T16:47:06.841Z,10.18
2022-10-19T16:49:36.043Z,9.96
2022-10-19T16:52:11.087Z,10.06
2022-10-19T16:54:43.323Z,10.13
2022-10-19T16:57:12.456Z,10.44
2022-10-19T16:59:42.871Z,10.54
2022-10-19T17:02:12.700Z,10.57
2022-10-19T17:04:41.942Z,10.56
2022-10-19T17:07:12.414Z,10.19
2022-10-19T17:09:42.942Z,10.45
2022-10-19T17:12:13.762Z,10.27
2022-10-19T17:14:44.314Z,10.51
2022-10-19T17:17:13.858Z,10.68
2022-10-19T17:19:42.876Z,10.70
2022-10-19T17:22:11.991Z,10.69
2022-10-19T17:24:41.307Z,10.82
2022-10-19T17:27:10.941Z,10.85
2022-10-19T17:29:40.428Z,10.78
2022-10-19T17:32:09.508Z,10.92
2022-10-19T17:34:38.677Z,11.13
2022-10-19T17:37:07.666Z,11.26
2022-10-19T17:39:37.766Z,11.34
2022-10-19T17:42:06.807Z,11.69
2022-10-19T17:44:36.002Z,11.67
2022-10-19T17:47:05.408Z,11.94
2022-10-19T17:49:34.485Z,11.96
2022-10-19T17:52:03.681Z,11.95
2022-10-19T17:54:43.401Z,11.99
2022-10-19T17:57:21.777Z,11.97
2022-10-19T17:59:52.927Z,11.93
2022-10-19T18:02:22.555Z,12.02
2022-10-19T18:04:51.684Z,12.21
2022-10-19T18:07:22.862Z,12.00
2022-10-19T18:09:52.426Z,12.17
2022-10-19T18:12:21.666Z,12.60
2022-10-19T18:14:50.779Z,12.62
2022-10-19T18:17:22.773Z,12.88
2022-10-19T18:19:54.539Z,13.05
2022-10-19T18:22:23.593Z,13.22
2022-10-19T18:24:55.440Z,13.31
2022-10-19T18:27:24.556Z,13.11
2022-10-19T18:29:53.969Z,13.42
2022-10-19T18:32:23.036Z,13.61
2022-10-19T18:34:52.107Z,13.49
2022-10-19T18:37:21.286Z,13.52
2022-10-19T18:39:53.085Z,13.73
2022-10-19T18:42:22.230Z,13.67
2022-10-19T18:44:51.354Z,13.73
2022-10-19T18:47:20.453Z,14.08
2022-10-19T18:49:52.363Z,14.16
2022-10-19T18:52:21.599Z,14.10
2022-10-19T18:54:50.869Z,14.37
2022-10-19T18:57:20.215Z,14.44
2022-10-19T18:59:50.449Z,14.51
2022-10-19T19:02:28.588Z,14.52
2022-10-19T19:05:08.784Z,14.74
2022-10-19T19:07:40.240Z,14.72
2022-10-19T19:10:11.224Z,14.95
2022-10-19T19:12:43.304Z,15.23
2022-10-19T19:15:15.905Z,15.57
2022-10-19T19:17:49.192Z,15.21
2022-10-19T19:20:24.366Z,15.62
2022-10-19T19:22:55.789Z,15.54
2022-10-19T19:25:26.038Z,15.73
2022-10-19T19:28:02.517Z,15.73
2022-10-19T19:30:43.327Z,15.53
2022-10-19T19:33:20.011Z,15.51
2022-10-19T19:35:53.911Z,16.14
2022-10-19T19:38:26.126Z,15.90
2022-10-19T19:40:59.047Z,15.95
2022-10-19T19:43:29.931Z,16.12
2022-10-19T19:46:04.764Z,15.98
2022-10-19T19:48:42.304Z,16.06
2022-10-19T19:51:20.762Z,16.08
2022-10-19T19:53:54.331Z,16.05
2022-10-19T19:56:26.465Z,16.08
2022-10-19T19:59:01.508Z,16.09
2022-10-19T20:01:34.229Z,16.22
2022-10-19T20:04:05.074Z,16.40
2022-10-19T20:06:38.891Z,16.64
2022-10-19T20:09:12.629Z,16.80
2022-10-19T20:11:44.415Z,16.66
2022-10-19T20:14:14.903Z,16.43
2022-10-19T20:16:49.370Z,16.54
2022-10-19T20:19:21.463Z,16.62
2022-10-19T20:21:57.736Z,16.68
2022-10-19T20:24:37.654Z,16.58
2022-10-19T20:27:08.588Z,16.70
2022-10-19T20:29:41.939Z,16.52
2022-10-19T20:32:43.489Z,16.53
2022-10-19T20:35:16.664Z,16.73
2022-10-19T20:37:53.765Z,16.73
2022-10-19T20:40:25.920Z,16.99
2022-10-19T20:42:57.921Z,17.06
2022-10-19T20:45:31.448Z,16.60
2022-10-19T20:48:04.532Z,16.76
2022-10-19T20:50:41.890Z,16.68
2022-10-19T20:53:17.445Z,16.68
2022-10-19T20:55:50.960Z,16.37
2022-10-19T20:58:21.673Z,16.85
2022-10-19T21:00:52.350Z,17.29
2022-10-19T21:03:25.487Z,17.09
2022-10-19T21:05:58.695Z,17.06
2022-10-19T21:08:29.741Z,16.88
2022-10-19T21:11:00.817Z,17.36
2022-10-19T21:13:32.735Z,17.59
2022-10-19T21:16:10.892Z,17.81
2022-10-19T21:18:43.331Z,18.00
2022-10-19T21:21:25.286Z,18.30
2022-10-19T21:24:06.398Z,18.20
2022-10-19T21:26:38.679Z,18.49
2022-10-19T21:29:12.125Z,18.38
2022-10-19T21:31:47.875Z,18.53
2022-10-19T21:34:26.757Z,18.23
2022-10-19T21:36:59.457Z,18.23
2022-10-19T21:39:31.918Z,17.94
2022-10-19T21:42:05.354Z,18.02
2022-10-19T21:44:36.040Z,18.10
2022-10-19T21:47:09.477Z,18.26
2022-10-19T21:49:39.784Z,18.11
2022-10-19T21:52:13.826Z,18.34
2022-10-19T21:54:48.674Z,18.67
2022-10-19T21:57:19.310Z,18.84
2022-10-19T21:59:53.838Z,18.56
2022-10-19T22:02:24.627Z,18.84
2022-10-19T22:04:56.065Z,18.96
2022-10-19T22:07:26.287Z,18.35
2022-10-19T22:09:57.989Z,18.79
2022-10-19T22:12:31.246Z,19.07
2022-10-19T22:15:05.653Z,18.24
2022-10-19T22:17:37.871Z,18.16
2022-10-19T22:20:13.936Z,18.39
2022-10-19T22:22:44.731Z,18.18
2022-10-19T22:25:17.269Z,18.56
2022-10-19T22:27:51.688Z,18.78
2022-10-19T22:30:24.779Z,19.01
2022-10-19T22:32:55.646Z,19.40
2022-10-19T22:35:26.551Z,19.69
2022-10-19T22:37:57.906Z,19.25
2022-10-19T22:40:28.907Z,19.20
2022-10-19T22:43:56.597Z,19.24
2022-10-19T22:47:13.867Z,19.77
2022-10-19T22:49:42.983Z,19.95
2022-10-19T22:52:12.629Z,20.06
2022-10-19T22:54:45.373Z,20.16
2022-10-19T22:57:22.757Z,20.26
2022-10-19T22:59:52.349Z,20.32
2022-10-19T23:02:21.993Z,20.38
2022-10-19T23:04:54.466Z,20.42
2022-10-19T23:07:24.192Z,20.46
2022-10-19T23:09:53.517Z,20.51
2022-10-19T23:12:23.236Z,20.54
2022-10-19T23:14:52.857Z,20.60
2022-10-19T23:17:22.165Z,20.64
2022-10-19T23:19:51.177Z,20.68
2022-10-19T23:22:20.789Z,20.70
2022-10-19T23:24:49.974Z,20.72
2022-10-19T23:27:19.800Z,20.74
2022-10-19T23:29:49.531Z,20.77
2022-10-19T23:32:19.092Z,20.78
2022-10-19T23:34:48.777Z,20.78
2022-10-19T23:37:18.939Z,20.80
2022-10-19T23:39:48.555Z,20.80
2022-10-19T23:42:19.041Z,20.83
2022-10-19T23:44:52.624Z,20.84
2022-10-19T23:47:22.817Z,20.84
2022-10-19T23:49:53.260Z,20.86
2022-10-19T23:52:23.874Z,20.88
2022-10-19T23:54:55.485Z,20.87
2022-10-19T23:57:25.947Z,20.87
2022-10-19T23:59:56.400Z,20.88
